createdAt,value
2023-02-25T00:18:59.692Z,4.86
2023-02-25T00:19:59.488Z,5.26
2023-02-25T00:20:59.576Z,4.88
2023-02-25T00:21:59.456Z,4.51
2023-02-25T00:22:59.412Z,4.57
2023-02-25T00:24:14.049Z,4.70
2023-02-25T00:25:00.395Z,3.75
2023-02-25T00:25:59.399Z,4.42
2023-02-25T00:26:59.427Z,4.44
2023-02-25T00:27:59.366Z,5.28
2023-02-25T00:28:59.348Z,3.98
2023-02-25T00:29:59.352Z,4.30
2023-02-25T00:30:59.498Z,5.18
2023-02-25T00:31:59.515Z,4.94
2023-02-25T00:32:59.390Z,4.34
2023-02-25T00:33:59.441Z,4.68
2023-02-25T00:34:59.470Z,4.88
2023-02-25T00:35:59.447Z,4.85
2023-02-25T00:36:59.519Z,3.96
2023-02-25T00:38:13.752Z,4.54
2023-02-25T00:39:00.557Z,4.96
2023-02-25T00:39:59.528Z,4.30
2023-02-25T00:40:59.498Z,4.75
2023-02-25T00:41:59.488Z,4.82
2023-02-25T00:42:59.490Z,5.28
2023-02-25T00:45:50.249Z,4.71
2023-02-25T00:46:50.152Z,4.52
2023-02-25T00:47:50.307Z,3.70
2023-02-25T00:48:50.058Z,4.17
2023-02-25T00:49:50.032Z,4.02
2023-02-25T00:50:49.994Z,4.86
2023-02-25T00:51:50.040Z,5.26
2023-02-25T00:52:50.007Z,4.38
2023-02-25T00:53:49.994Z,4.14
2023-02-25T00:54:49.997Z,4.43
2023-02-25T00:55:49.989Z,4.79
2023-02-25T00:56:49.997Z,4.22
2023-02-25T00:57:49.973Z,3.67
2023-02-25T00:58:49.947Z,3.26
2023-02-25T01:01:10.017Z,3.36
2023-02-25T01:02:10.099Z,4.07
2023-02-25T01:03:09.523Z,3.83
2023-02-25T01:04:09.535Z,3.58
2023-02-25T01:05:09.557Z,3.68
2023-02-25T01:06:09.911Z,4.13
2023-02-25T01:07:09.681Z,2.83
2023-02-25T01:08:09.516Z,3.69
2023-02-25T01:09:09.502Z,3.34
2023-02-25T01:10:09.508Z,3.85
2023-02-25T02:44:00.465Z,0.46
2023-02-25T02:45:00.375Z,0.36
2023-02-25T02:46:00.248Z,0.47
2023-02-25T02:47:00.182Z,1.33
2023-02-25T02:48:00.163Z,0.45
2023-02-25T02:49:00.104Z,0.54
2023-02-25T02:50:00.148Z,0.52
2023-02-25T02:51:00.107Z,0.66
2023-02-25T02:52:00.156Z,0.28
2023-02-25T02:53:00.125Z,0.43
2023-02-25T02:54:00.102Z,0.33
2023-02-25T02:55:00.161Z,0.38
2023-02-25T02:56:00.117Z,0.36
2023-02-25T02:57:00.072Z,0.46
2023-02-25T02:58:00.090Z,0.27
2023-02-25T02:59:00.121Z,0.30
2023-02-25T03:00:00.062Z,0.47
2023-02-25T03:01:00.128Z,0.42
2023-02-25T03:02:00.008Z,0.37
2023-02-25T03:03:00.021Z,0.37
2023-02-25T03:04:00.151Z,0.51
2023-02-25T03:05:00.048Z,0.87
2023-02-25T03:06:00.024Z,0.48
2023-02-25T03:08:50.888Z,4.27
2023-02-25T03:09:50.349Z,0.97
2023-02-25T03:10:50.223Z,1.04
2023-02-25T03:11:49.945Z,0.55
2023-02-25T03:12:52.317Z,0.54
2023-02-25T03:13:51.289Z,0.76
2023-02-25T03:14:51.389Z,0.52
2023-02-25T03:15:51.833Z,0.44
2023-02-25T03:16:50.311Z,0.49
2023-02-25T03:19:09.498Z,0.68
2023-02-25T03:20:09.319Z,0.66
2023-02-25T03:21:09.450Z,0.56
2023-02-25T03:22:09.249Z,0.59
2023-02-25T03:23:09.222Z,0.51
2023-02-25T03:24:09.243Z,0.44
2023-02-25T03:25:09.224Z,0.39
2023-02-25T03:26:09.189Z,0.77
2023-02-25T03:27:09.253Z,0.58
2023-02-25T03:28:09.180Z,0.61
2023-02-25T03:29:09.205Z,0.65
2023-02-25T03:30:09.204Z,0.35
2023-02-25T03:31:09.277Z,0.74
2023-02-25T03:33:28.936Z,0.68
2023-02-25T03:34:29.117Z,0.45
2023-02-25T03:35:28.915Z,1.16
2023-02-25T03:36:28.887Z,0.71
2023-02-25T03:37:28.859Z,0.23
2023-02-25T03:39:49.091Z,0.61
2023-02-25T03:40:49.361Z,0.61
2023-02-25T03:41:49.027Z,0.64
2023-02-25T03:42:49.008Z,0.43
2023-02-25T03:43:49.029Z,0.57
2023-02-25T03:44:49.022Z,0.74
2023-02-25T03:45:49.067Z,0.26
2023-02-25T03:46:49.045Z,0.47
2023-02-25T03:47:48.956Z,0.35
2023-02-25T03:48:48.965Z,0.42
2023-02-25T03:49:48.975Z,0.50
2023-02-25T03:50:48.974Z,0.40
2023-02-25T03:51:48.941Z,0.53
2023-02-25T03:52:48.911Z,0.55
2023-02-25T03:53:48.963Z,0.34
2023-02-25T03:54:48.925Z,0.40
2023-02-25T03:55:48.912Z,0.43
2023-02-25T03:56:48.920Z,0.26
2023-02-25T03:57:48.952Z,0.22
2023-02-25T03:58:48.913Z,0.43
2023-02-25T03:59:48.862Z,0.39
2023-02-25T04:00:48.859Z,0.37
2023-02-25T04:01:48.865Z,0.23
2023-02-25T04:02:48.931Z,0.31
2023-02-25T04:03:48.863Z,0.24
2023-02-25T04:04:48.902Z,0.34
2023-02-25T04:05:48.841Z,0.43
2023-02-25T04:06:48.838Z,0.53
2023-02-25T04:07:48.869Z,0.32
2023-02-25T04:08:48.823Z,0.46
2023-02-25T04:09:48.804Z,0.39
2023-02-25T04:10:48.830Z,0.50
2023-02-25T04:11:48.796Z,0.38
2023-02-25T04:12:48.819Z,0.28
2023-02-25T06:10:37.434Z,6.93
2023-02-25T06:11:37.267Z,1.78
2023-02-25T06:12:37.518Z,1.39
2023-02-25T06:13:37.155Z,1.64
2023-02-25T06:14:37.171Z,1.16
2023-02-25T06:15:37.153Z,1.44
2023-02-25T06:16:37.341Z,1.22
2023-02-25T06:17:37.186Z,1.19
2023-02-25T06:18:37.201Z,1.21
2023-02-25T06:19:37.168Z,1.07
2023-02-25T06:20:37.100Z,1.01
2023-02-25T06:21:37.110Z,1.01
2023-02-25T06:22:37.187Z,1.22
2023-02-25T06:23:37.094Z,1.52
2023-02-25T06:24:37.107Z,1.28
2023-02-25T06:25:37.094Z,1.01
2023-02-25T06:26:37.083Z,1.25
2023-02-25T06:27:37.114Z,1.09
2023-02-25T06:28:37.132Z,1.32
2023-02-25T06:29:37.139Z,0.81
2023-02-25T06:31:57.750Z,1.06
2023-02-25T06:32:57.452Z,1.39
2023-02-25T06:33:57.526Z,0.85
2023-02-25T06:34:57.975Z,1.28
2023-02-25T06:35:57.516Z,1.16
2023-02-25T06:36:57.282Z,1.16
2023-02-25T06:37:57.281Z,1.07
2023-02-25T06:38:57.361Z,1.40
2023-02-25T06:39:58.224Z,1.17
2023-02-25T06:40:57.233Z,0.85
2023-02-25T06:41:57.234Z,1.24
2023-02-25T06:42:57.224Z,1.05
2023-02-25T06:43:57.197Z,1.20
2023-02-25T06:44:58.220Z,1.37
2023-02-25T06:45:57.358Z,0.97
2023-02-25T06:46:57.222Z,1.67
2023-02-25T06:47:57.231Z,1.10
2023-02-25T06:48:57.179Z,1.48
2023-02-25T06:49:57.170Z,1.76
2023-02-25T06:50:57.174Z,1.55
2023-02-25T06:51:57.236Z,1.05
2023-02-25T06:52:57.174Z,1.75
2023-02-25T06:53:57.104Z,1.42
2023-02-25T06:54:57.311Z,1.07
2023-02-25T06:55:57.087Z,1.41
2023-02-25T06:56:57.079Z,1.48
2023-02-25T06:57:57.133Z,1.15
2023-02-25T06:58:57.112Z,1.48
2023-02-25T06:59:57.198Z,1.14
2023-02-25T07:00:57.080Z,1.72
2023-02-25T07:01:57.175Z,1.93
2023-02-25T07:02:57.096Z,1.49
2023-02-25T07:03:57.061Z,1.77
2023-02-25T07:04:57.051Z,1.36
2023-02-25T07:05:57.027Z,1.28
2023-02-25T07:06:57.014Z,1.46
2023-02-25T07:07:57.020Z,1.92
2023-02-25T07:08:57.046Z,1.51
2023-02-25T07:09:57.055Z,1.33
2023-02-25T07:10:57.010Z,1.33
2023-02-25T07:11:57.070Z,1.50
2023-02-25T07:12:57.009Z,0.97
2023-02-25T07:14:56.977Z,1.27
2023-02-25T07:15:57.104Z,1.17
2023-02-25T07:16:56.908Z,1.16
2023-02-25T07:17:56.868Z,1.37
2023-02-25T07:19:13.116Z,1.45
2023-02-25T07:19:57.767Z,1.29
2023-02-25T07:20:57.114Z,1.24
2023-02-25T07:21:56.812Z,1.47
2023-02-25T07:22:56.891Z,1.32
2023-02-25T07:23:56.833Z,1.16
2023-02-25T07:24:56.851Z,1.29
2023-02-25T07:25:56.808Z,1.47
2023-02-25T07:26:56.795Z,1.22
2023-02-25T07:27:56.802Z,1.54
2023-02-25T07:28:56.802Z,1.84
2023-02-25T07:29:56.808Z,1.81
2023-02-25T07:30:56.862Z,2.81
2023-02-25T07:31:57.065Z,2.59
2023-02-25T07:32:56.816Z,2.61
2023-02-25T07:33:56.791Z,3.01
2023-02-25T07:36:17.201Z,2.14
2023-02-25T07:55:37.682Z,3.69
2023-02-25T07:58:11.034Z,9.41
2023-02-25T07:59:10.824Z,3.67
2023-02-25T08:00:10.993Z,3.92
2023-02-25T08:01:10.761Z,4.51
2023-02-25T08:02:10.834Z,3.73
2023-02-25T08:03:10.715Z,3.37
2023-02-25T08:04:10.791Z,3.35
2023-02-25T08:05:10.768Z,3.19
2023-02-25T08:06:10.740Z,3.76
2023-02-25T08:07:10.825Z,3.52
2023-02-25T08:08:10.724Z,3.43
2023-02-25T08:09:10.700Z,3.30
2023-02-25T08:41:09.655Z,2.94
2023-02-25T08:42:09.213Z,2.45
2023-02-25T08:58:09.520Z,11.50
2023-02-25T09:12:16.646Z,11.50
2023-02-25T09:13:15.850Z,2.96
2023-02-25T09:14:16.073Z,3.22
2023-02-25T09:15:16.339Z,3.27
2023-02-25T09:16:15.806Z,3.11
2023-02-25T09:17:15.869Z,2.79
2023-02-25T09:18:15.768Z,3.57
2023-02-25T09:19:15.840Z,3.20
2023-02-25T09:20:15.710Z,2.56
2023-02-25T09:21:15.719Z,2.43
2023-02-25T09:22:15.690Z,2.68
2023-02-25T09:23:15.672Z,2.52
2023-02-25T09:24:15.689Z,2.58
2023-02-25T09:25:15.658Z,2.90
2023-02-25T09:26:15.742Z,2.57
2023-02-25T09:27:15.674Z,2.94
2023-02-25T09:28:15.654Z,2.87
2023-02-25T09:29:16.655Z,2.51
2023-02-25T09:30:15.679Z,2.98
2023-02-25T09:31:15.853Z,2.93
2023-02-25T09:32:15.853Z,2.60
2023-02-25T09:33:15.729Z,2.15
2023-02-25T09:34:15.860Z,2.96
2023-02-25T09:35:15.882Z,2.64
2023-02-25T09:36:15.928Z,2.69
2023-02-25T09:37:15.974Z,2.47
2023-02-25T09:38:15.988Z,2.74
2023-02-25T09:39:16.012Z,2.47
2023-02-25T09:40:16.104Z,2.46
2023-02-25T09:41:16.095Z,2.47
2023-02-25T09:42:16.160Z,2.91
2023-02-25T09:43:16.231Z,2.64
2023-02-25T09:44:16.222Z,2.88
2023-02-25T09:45:16.280Z,3.14
2023-02-25T09:46:16.352Z,3.34
2023-02-25T09:47:16.430Z,3.29
2023-02-25T09:48:16.360Z,2.97
2023-02-25T09:49:16.405Z,3.16
2023-02-25T09:50:16.422Z,2.80
2023-02-25T09:51:16.418Z,2.77
2023-02-25T09:52:16.510Z,2.83
2023-02-25T09:53:16.643Z,2.80
2023-02-25T09:54:16.666Z,2.94
2023-02-25T09:55:16.660Z,2.62
2023-02-25T09:56:16.753Z,2.51
2023-02-25T10:04:31.378Z,2.59
2023-02-25T10:07:01.343Z,7.47
2023-02-25T10:22:31.617Z,9.02
2023-02-25T10:26:09.007Z,2.74
2023-02-25T10:32:08.540Z,4.76
2023-02-25T10:33:07.992Z,3.20
2023-02-25T10:34:07.881Z,2.26
2023-02-25T10:35:07.501Z,3.00
2023-02-25T10:36:07.490Z,2.65
2023-02-25T10:37:07.500Z,3.28
2023-02-25T10:38:07.637Z,3.17
2023-02-25T10:39:07.517Z,2.79
2023-02-25T10:40:07.603Z,3.06
2023-02-25T10:41:07.470Z,2.98
2023-02-25T10:42:07.513Z,3.56
2023-02-25T10:43:07.460Z,3.23
2023-02-25T10:44:07.583Z,3.56
2023-02-25T10:45:07.440Z,3.29
2023-02-25T10:46:07.433Z,2.85
2023-02-25T10:52:12.719Z,4.43
2023-02-25T11:16:31.232Z,2.48
2023-02-25T13:13:13.503Z,0.96
2023-02-25T13:14:13.054Z,3.36
2023-02-25T13:15:13.294Z,1.58
2023-02-25T13:16:13.753Z,2.19
2023-02-25T13:17:12.792Z,1.78
2023-02-25T13:18:12.992Z,1.76
2023-02-25T13:19:12.876Z,1.90
2023-02-25T13:20:12.746Z,1.72
2023-02-25T13:21:12.781Z,1.71
2023-02-25T13:22:12.725Z,1.85
2023-02-25T13:23:12.912Z,2.12
2023-02-25T13:24:12.645Z,1.74
2023-02-25T13:25:13.026Z,1.68
2023-02-25T13:26:12.673Z,1.88
2023-02-25T13:27:12.849Z,1.86
2023-02-25T13:28:12.788Z,1.66
2023-02-25T13:29:12.748Z,2.08
2023-02-25T13:30:12.868Z,2.25
2023-02-25T13:31:12.903Z,2.38
2023-02-25T13:39:12.512Z,2.22
2023-02-25T13:40:12.474Z,2.58
2023-02-25T13:41:12.260Z,2.34
2023-02-25T13:42:12.222Z,2.47
2023-02-25T13:43:12.244Z,2.20
2023-02-25T13:44:12.322Z,2.36
2023-02-25T13:45:12.282Z,2.14
2023-02-25T13:53:42.165Z,2.35
2023-02-25T13:54:41.930Z,2.01
2023-02-25T13:55:42.105Z,1.77
2023-02-25T13:56:41.848Z,1.87
2023-02-25T13:57:41.828Z,1.73
2023-02-25T13:58:41.848Z,2.24
2023-02-25T13:59:41.909Z,2.25
2023-02-25T14:00:41.831Z,1.94
2023-02-25T14:01:41.861Z,2.42
2023-02-25T14:02:41.916Z,2.69
2023-02-25T14:03:41.835Z,2.16
2023-02-25T14:04:41.772Z,2.13
2023-02-25T14:05:41.836Z,2.12
2023-02-25T14:06:41.820Z,2.36
2023-02-25T14:07:41.792Z,2.42
2023-02-25T14:08:41.806Z,1.89
2023-02-25T14:09:41.776Z,1.86
2023-02-25T14:10:41.784Z,2.59
2023-02-25T14:11:43.460Z,2.16
2023-02-25T14:12:41.762Z,1.97
2023-02-25T14:13:41.729Z,1.56
2023-02-25T14:14:41.721Z,2.03
2023-02-25T14:15:41.761Z,2.06
2023-02-25T14:16:41.719Z,1.82
2023-02-25T14:22:58.089Z,1.74
2023-02-25T17:11:16.305Z,3.16
2023-02-25T17:12:16.314Z,3.16
2023-02-25T17:13:16.290Z,2.98
2023-02-25T17:14:16.313Z,2.94
2023-02-25T17:15:16.269Z,2.98
2023-02-25T17:16:16.275Z,2.73
2023-02-25T17:17:16.256Z,2.36
2023-02-25T17:18:16.258Z,1.82
2023-02-25T17:19:16.763Z,1.44
2023-02-25T17:20:16.268Z,2.15
2023-02-25T17:21:16.216Z,2.21
2023-02-25T17:22:16.219Z,3.08
2023-02-25T17:23:16.245Z,2.55
2023-02-25T17:24:16.258Z,2.12
2023-02-25T17:25:16.350Z,2.33
2023-02-25T17:26:16.330Z,2.36
2023-02-25T17:27:16.395Z,2.14
2023-02-25T17:28:16.426Z,2.83
2023-02-25T17:29:16.439Z,3.29
2023-02-25T17:30:16.467Z,3.18
2023-02-25T17:31:16.733Z,3.56
2023-02-25T17:39:23.403Z,1.32
2023-02-25T18:13:58.620Z,4.02
2023-02-25T18:14:58.774Z,4.41
2023-02-25T18:15:59.914Z,5.23
2023-02-25T18:16:58.594Z,5.96
2023-02-25T18:17:58.548Z,6.93
2023-02-25T18:18:58.531Z,6.65
2023-02-25T18:19:58.528Z,6.16
2023-02-25T18:20:58.532Z,5.00
2023-02-25T18:21:58.540Z,5.37
2023-02-25T18:22:58.480Z,4.44
2023-02-25T18:23:58.494Z,5.00
2023-02-25T18:24:58.506Z,5.18
2023-02-25T18:25:58.482Z,4.68
2023-02-25T18:26:58.474Z,4.36
2023-02-25T18:27:58.505Z,4.96
2023-02-25T18:28:58.506Z,5.53
2023-02-25T18:29:58.448Z,6.27
2023-02-25T18:30:58.495Z,6.52
2023-02-25T18:31:58.583Z,5.19
2023-02-25T18:32:58.405Z,6.59
2023-02-25T18:33:58.533Z,7.79
2023-02-25T18:34:58.566Z,6.28
2023-02-25T18:35:58.562Z,5.49
2023-02-25T18:36:58.638Z,4.78
2023-02-25T18:39:18.879Z,3.61
2023-02-25T18:40:18.457Z,3.62
2023-02-25T18:41:18.583Z,4.56
2023-02-25T18:42:18.659Z,4.26
2023-02-25T18:43:18.391Z,5.86
2023-02-25T18:44:18.439Z,8.65
2023-02-25T18:45:18.389Z,7.99
2023-02-25T18:46:18.432Z,8.77
2023-02-25T18:47:18.387Z,6.29
2023-02-25T18:48:18.324Z,4.77
2023-02-25T18:49:18.398Z,4.83
2023-02-25T18:50:18.345Z,6.41
2023-02-25T18:51:18.375Z,5.47
2023-02-25T18:52:18.331Z,3.74
2023-02-25T18:53:18.296Z,3.61
2023-02-25T18:54:18.285Z,4.65
2023-02-25T18:55:18.542Z,4.08
2023-02-25T18:56:18.364Z,2.83
2023-02-25T18:57:18.305Z,3.32
2023-02-25T18:58:18.252Z,4.29
2023-02-25T18:59:18.260Z,4.09
2023-02-25T19:00:18.265Z,3.85
2023-02-25T19:02:38.484Z,4.56
2023-02-25T19:03:38.673Z,3.99
2023-02-25T19:04:38.419Z,4.55
2023-02-25T19:05:38.394Z,4.13
2023-02-25T19:06:38.409Z,4.61
2023-02-25T19:07:38.375Z,4.41
2023-02-25T19:08:38.386Z,5.29
2023-02-25T19:09:38.381Z,4.35
2023-02-25T19:10:38.345Z,5.14
2023-02-25T19:11:38.344Z,4.92
2023-02-25T19:15:00.112Z,7.72
2023-02-25T19:15:59.868Z,3.86
2023-02-25T19:16:59.829Z,4.05
2023-02-25T19:17:59.797Z,4.72
2023-02-25T19:18:59.801Z,4.10
2023-02-25T19:19:59.843Z,5.07
2023-02-25T19:20:59.811Z,5.43
2023-02-25T19:21:59.773Z,4.66
2023-02-25T19:22:59.769Z,5.22
2023-02-25T19:23:59.800Z,5.16
2023-02-25T19:24:59.809Z,5.54
2023-02-25T19:25:59.770Z,4.97
2023-02-25T19:26:59.756Z,4.89
2023-02-25T19:27:59.758Z,4.31
2023-02-25T19:28:59.724Z,5.09
2023-02-25T19:29:59.726Z,5.12
2023-02-25T19:30:59.808Z,5.78
2023-02-25T19:31:59.844Z,4.21
2023-02-25T19:32:59.742Z,4.70
2023-02-25T19:33:59.713Z,4.93
2023-02-25T19:34:59.700Z,5.17
2023-02-25T19:35:59.726Z,3.49
2023-02-25T19:36:59.724Z,3.46
2023-02-25T19:37:59.729Z,3.45
2023-02-25T19:38:59.737Z,3.39
2023-02-25T20:27:29.815Z,4.39
2023-02-25T21:06:33.723Z,4.40
2023-02-25T21:07:33.311Z,4.02
2023-02-25T21:08:33.304Z,4.35
2023-02-25T21:09:33.294Z,4.50
2023-02-25T21:10:33.274Z,4.01
2023-02-25T21:11:33.288Z,5.21
2023-02-25T21:12:33.299Z,4.88
2023-02-25T21:13:33.282Z,5.68
2023-02-25T21:14:33.304Z,5.36
2023-02-25T21:15:33.350Z,5.06
2023-02-25T21:16:33.287Z,4.85
2023-02-25T21:17:33.291Z,5.08
2023-02-25T21:18:33.249Z,4.23
2023-02-25T21:19:33.238Z,5.11
2023-02-25T21:20:33.246Z,4.91
2023-02-25T21:22:33.277Z,4.67
2023-02-25T21:23:33.644Z,4.73
2023-02-25T21:24:33.246Z,4.81
2023-02-25T21:25:33.265Z,4.46
2023-02-25T21:26:33.458Z,4.69
2023-02-25T21:27:33.176Z,5.15
2023-02-25T21:28:33.210Z,4.34
2023-02-25T21:29:33.158Z,4.26
2023-02-25T21:30:33.233Z,4.51
2023-02-25T21:31:33.249Z,4.48
2023-02-25T21:32:33.134Z,3.99
2023-02-25T21:33:33.147Z,4.97
2023-02-25T21:34:33.122Z,4.55
2023-02-25T21:35:33.115Z,4.09
2023-02-25T21:36:33.141Z,4.77
2023-02-25T21:37:33.134Z,4.99
2023-02-25T21:38:33.103Z,4.38
2023-02-25T21:39:33.088Z,4.70
2023-02-25T21:40:33.078Z,5.56
2023-02-25T21:41:33.082Z,5.95
2023-02-25T21:42:33.141Z,5.24
2023-02-25T21:43:33.053Z,6.08
2023-02-25T21:44:33.063Z,5.94
2023-02-25T21:45:33.053Z,5.50
2023-02-25T22:27:29.040Z,4.74
2023-02-25T22:33:29.048Z,4.90
2023-02-25T22:34:28.312Z,5.50
2023-02-25T22:36:28.396Z,4.95
2023-02-25T22:37:28.068Z,4.86
2023-02-25T23:47:33.390Z,4.27
2023-02-25T23:48:33.223Z,1.67
2023-02-25T23:49:33.471Z,1.90
2023-02-25T23:50:33.109Z,2.00
2023-02-25T23:51:33.016Z,1.81
2023-02-25T23:52:33.048Z,1.73
2023-02-25T23:53:33.113Z,1.30
2023-02-25T23:54:32.985Z,1.69
2023-02-25T23:55:33.059Z,1.68
2023-02-25T23:56:33.371Z,2.07
2023-02-25T23:57:33.078Z,1.88
2023-02-25T23:58:33.468Z,1.94
2023-02-25T23:59:33.067Z,1.87
